createdAt,value
2022-12-11T00:00:23.694Z,35.00
2022-12-11T00:05:49.460Z,35.10
2022-12-11T00:10:55.564Z,33.70
2022-12-11T00:16:01.445Z,32.20
2022-12-11T00:21:10.571Z,30.20
2022-12-11T00:26:16.948Z,31.90
2022-12-11T00:31:24.030Z,31.30
2022-12-11T00:36:29.971Z,29.00
2022-12-11T00:41:35.802Z,31.00
2022-12-11T00:46:41.616Z,31.40
2022-12-11T00:51:47.312Z,30.10
2022-12-11T00:56:55.172Z,28.90
2022-12-11T01:02:00.837Z,26.70
2022-12-11T01:07:06.589Z,26.90
2022-12-11T01:12:12.961Z,27.10
2022-12-11T01:17:18.829Z,28.70
2022-12-11T01:22:25.322Z,27.80
2022-12-11T01:27:31.668Z,24.80
2022-12-11T01:32:37.940Z,27.10
2022-12-11T01:37:43.997Z,26.40
2022-12-11T01:42:49.968Z,26.70
2022-12-11T01:48:00.479Z,24.80
2022-12-11T01:53:10.641Z,23.70
2022-12-11T01:58:18.624Z,23.40
2022-12-11T02:03:24.876Z,22.80
2022-12-11T02:08:31.381Z,22.50
2022-12-11T02:13:45.962Z,23.60
2022-12-11T02:19:00.524Z,23.40
2022-12-11T02:24:32.577Z,23.40
2022-12-11T02:29:45.502Z,20.80
2022-12-11T02:34:58.491Z,22.60
2022-12-11T02:40:08.199Z,24.60
2022-12-11T02:45:16.644Z,26.50
2022-12-11T02:50:23.991Z,24.80
2022-12-11T02:55:32.691Z,24.70
2022-12-11T03:00:38.381Z,23.70
2022-12-11T03:05:46.225Z,23.90
2022-12-11T03:10:52.005Z,23.70
2022-12-11T03:16:12.274Z,23.90
2022-12-11T03:21:24.650Z,22.10
2022-12-11T03:26:56.642Z,22.30
2022-12-11T03:32:08.952Z,23.00
2022-12-11T03:37:16.212Z,25.40
2022-12-11T03:42:24.383Z,25.40
2022-12-11T03:47:31.332Z,21.70
2022-12-11T03:52:45.579Z,22.30
2022-12-11T03:57:51.974Z,23.40
2022-12-11T04:03:13.831Z,23.30
2022-12-11T04:08:22.154Z,21.50
2022-12-11T04:13:27.856Z,23.80
2022-12-11T04:18:52.468Z,25.40
2022-12-11T04:24:16.731Z,25.00
2022-12-11T04:29:22.555Z,25.00
2022-12-11T04:34:28.477Z,23.40
2022-12-11T04:39:34.360Z,24.20
2022-12-11T04:44:40.137Z,24.50
2022-12-11T04:49:45.998Z,30.90
2022-12-11T04:54:51.831Z,25.60
2022-12-11T04:59:57.456Z,23.90
2022-12-11T05:05:03.669Z,24.50
2022-12-11T05:10:10.835Z,26.60
2022-12-11T05:15:16.989Z,24.00
2022-12-11T05:20:22.661Z,22.90
2022-12-11T05:25:28.413Z,20.90
2022-12-11T05:30:34.345Z,22.50
2022-12-11T05:35:46.297Z,19.50
2022-12-11T05:40:59.176Z,21.00
2022-12-11T05:46:10.588Z,19.10
2022-12-11T05:51:17.600Z,17.70
2022-12-11T05:56:25.084Z,18.70
2022-12-11T06:01:33.338Z,16.60
2022-12-11T06:06:40.475Z,15.40
2022-12-11T06:11:46.211Z,17.40
2022-12-11T06:16:52.024Z,18.30
2022-12-11T06:21:57.810Z,17.10
2022-12-11T06:27:04.038Z,19.60
2022-12-11T06:32:10.444Z,15.70
2022-12-11T06:37:16.609Z,17.60
2022-12-11T06:42:22.801Z,17.20
2022-12-11T06:47:30.915Z,14.70
2022-12-11T06:52:37.307Z,16.40
2022-12-11T06:57:43.324Z,17.60
2022-12-11T07:02:50.545Z,15.60
2022-12-11T07:07:56.782Z,14.70
2022-12-11T07:13:02.611Z,14.20
2022-12-11T07:18:08.207Z,16.40
2022-12-11T07:23:13.983Z,15.90
2022-12-11T07:28:19.749Z,17.40
2022-12-11T07:33:25.339Z,16.80
2022-12-11T07:38:31.016Z,17.70
2022-12-11T07:43:37.518Z,17.70
2022-12-11T07:48:46.581Z,18.60
2022-12-11T07:53:52.595Z,30.60
2022-12-11T07:59:01.693Z,28.40
2022-12-11T08:04:10.041Z,25.70
2022-12-11T08:09:21.136Z,24.70
2022-12-11T08:14:27.333Z,24.00
2022-12-11T08:19:33.513Z,18.50
2022-12-11T08:24:39.536Z,19.90
2022-12-11T08:29:46.754Z,18.70
2022-12-11T08:34:53.805Z,17.90
2022-12-11T08:39:59.498Z,18.10
2022-12-11T08:45:06.590Z,21.00
2022-12-11T08:50:13.592Z,21.20
2022-12-11T08:55:19.572Z,19.90
2022-12-11T09:00:25.576Z,19.20
2022-12-11T09:05:31.436Z,22.10
2022-12-11T09:10:37.410Z,26.00
2022-12-11T09:15:43.650Z,17.10
2022-12-11T09:20:57.706Z,15.30
2022-12-11T09:26:06.185Z,15.30
2022-12-11T09:31:14.723Z,20.50
2022-12-11T09:36:20.471Z,20.00
2022-12-11T09:41:36.724Z,31.10
2022-12-11T09:46:43.732Z,22.30
2022-12-11T09:51:58.132Z,16.60
2022-12-11T09:57:15.455Z,16.80
2022-12-11T10:02:34.542Z,22.50
2022-12-11T10:07:47.641Z,23.20
2022-12-11T10:13:04.591Z,19.00
2022-12-11T10:18:17.362Z,18.10
2022-12-11T10:23:28.418Z,18.10
2022-12-11T10:28:35.174Z,16.80
2022-12-11T10:33:50.151Z,17.70
2022-12-11T10:38:56.452Z,15.60
2022-12-11T10:44:13.968Z,14.90
2022-12-11T10:49:25.777Z,14.40
2022-12-11T10:54:38.279Z,17.00
2022-12-11T10:59:48.352Z,18.80
2022-12-11T11:04:55.940Z,14.60
2022-12-11T11:10:18.583Z,15.60
2022-12-11T11:15:28.455Z,12.60
2022-12-11T11:20:36.073Z,11.80
2022-12-11T11:25:50.974Z,13.70
2022-12-11T11:31:01.989Z,10.30
2022-12-11T11:36:20.279Z,12.80
2022-12-11T11:41:29.481Z,18.20
2022-12-11T11:46:38.898Z,13.60
2022-12-11T11:51:51.740Z,12.30
2022-12-11T11:56:59.129Z,10.40
2022-12-11T12:02:15.434Z,13.30
2022-12-11T12:07:35.526Z,14.10
2022-12-11T12:12:50.772Z,15.80
2022-12-11T12:18:02.148Z,13.50
2022-12-11T12:23:34.915Z,11.90
2022-12-11T12:28:52.877Z,12.60
2022-12-11T12:34:06.757Z,15.00
2022-12-11T12:39:24.824Z,13.30
2022-12-11T12:44:37.955Z,12.60
2022-12-11T12:49:45.905Z,14.40
2022-12-11T12:55:14.552Z,14.70
2022-12-11T13:00:38.898Z,16.40
2022-12-11T13:05:55.674Z,14.80
2022-12-11T13:11:05.347Z,14.00
2022-12-11T13:16:34.957Z,19.80
2022-12-11T13:21:40.976Z,16.20
2022-12-11T13:26:47.545Z,16.40
2022-12-11T13:31:59.717Z,14.40
2022-12-11T13:37:07.433Z,12.30
2022-12-11T13:42:26.157Z,13.10
2022-12-11T13:47:33.203Z,14.00
2022-12-11T13:52:39.154Z,15.40
2022-12-11T13:57:47.495Z,16.20
2022-12-11T14:02:55.041Z,13.00
2022-12-11T14:08:09.057Z,21.40
2022-12-11T14:13:22.147Z,16.90
2022-12-11T14:18:30.569Z,15.20
2022-12-11T14:23:37.793Z,15.20
2022-12-11T14:28:45.192Z,12.30
2022-12-11T14:33:54.200Z,15.70
2022-12-11T14:39:04.961Z,12.50
2022-12-11T14:49:25.274Z,12.20
2022-12-11T14:54:35.723Z,11.00
2022-12-11T14:59:47.283Z,10.10
2022-12-11T15:05:05.172Z,13.20
2022-12-11T15:10:25.693Z,14.60
2022-12-11T15:15:33.824Z,13.90
2022-12-11T15:20:39.883Z,14.20
2022-12-11T15:25:52.737Z,12.70
2022-12-11T15:31:00.773Z,13.00
2022-12-11T15:36:21.709Z,14.80
2022-12-11T15:41:33.183Z,19.50
2022-12-11T15:46:39.025Z,14.90
2022-12-11T15:51:44.857Z,12.60
2022-12-11T15:56:50.837Z,13.80
2022-12-11T16:01:56.753Z,13.70
2022-12-11T16:07:02.424Z,14.50
2022-12-11T16:12:09.414Z,13.90
2022-12-11T16:17:16.399Z,12.80
2022-12-11T16:22:22.205Z,11.70
2022-12-11T16:27:28.155Z,14.00
2022-12-11T16:32:34.479Z,13.60
2022-12-11T16:37:40.466Z,14.20
2022-12-11T16:42:46.890Z,15.60
2022-12-11T16:47:53.578Z,14.60
2022-12-11T16:53:00.055Z,12.20
2022-12-11T16:58:06.112Z,12.50
2022-12-11T17:03:11.884Z,14.40
2022-12-11T17:08:17.752Z,15.20
2022-12-11T17:13:23.562Z,15.70
2022-12-11T17:18:29.532Z,14.20
2022-12-11T17:23:35.347Z,15.20
2022-12-11T17:28:41.303Z,15.70
2022-12-11T17:33:48.278Z,15.50
2022-12-11T17:38:54.222Z,13.10
2022-12-11T17:43:59.971Z,13.50
2022-12-11T17:49:06.351Z,14.60
2022-12-11T17:54:12.115Z,13.20
2022-12-11T17:59:18.309Z,13.10
2022-12-11T18:04:24.419Z,15.20
2022-12-11T18:09:30.352Z,14.90
2022-12-11T18:14:37.554Z,12.60
2022-12-11T18:19:46.284Z,14.00
2022-12-11T18:24:52.908Z,13.80
2022-12-11T18:29:58.841Z,15.00
2022-12-11T18:35:05.624Z,13.40
2022-12-11T18:40:12.642Z,12.50
2022-12-11T18:45:18.345Z,13.70
2022-12-11T18:50:24.116Z,14.00
2022-12-11T18:55:29.825Z,14.70
2022-12-11T19:00:37.400Z,12.30
2022-12-11T19:05:44.012Z,13.70
2022-12-11T19:10:49.870Z,14.00
2022-12-11T19:15:55.814Z,12.90
2022-12-11T19:21:08.525Z,12.20
2022-12-11T19:26:18.241Z,13.70
2022-12-11T19:31:24.889Z,14.10
2022-12-11T19:36:35.217Z,13.50
2022-12-11T19:41:42.876Z,14.00
2022-12-11T19:46:48.786Z,15.40
2022-12-11T19:51:54.884Z,15.60
2022-12-11T19:57:00.555Z,13.90
2022-12-11T20:02:06.523Z,16.70
2022-12-11T20:07:12.409Z,17.60
2022-12-11T20:12:18.290Z,16.90
2022-12-11T20:17:24.342Z,15.80
2022-12-11T20:22:30.312Z,16.60
2022-12-11T20:27:37.475Z,17.50
2022-12-11T20:32:43.636Z,15.50
2022-12-11T20:37:49.508Z,13.70
2022-12-11T20:42:55.329Z,16.10
2022-12-11T20:48:01.269Z,16.00
2022-12-11T20:53:07.106Z,15.30
2022-12-11T20:58:12.898Z,13.60
2022-12-11T21:03:18.922Z,13.50
2022-12-11T21:08:24.864Z,14.40
2022-12-11T21:13:31.223Z,13.40
2022-12-11T21:18:37.306Z,12.30
2022-12-11T21:23:43.376Z,13.10
2022-12-11T21:28:52.162Z,11.50
2022-12-11T21:33:58.055Z,11.30
2022-12-11T21:39:04.559Z,10.20
2022-12-11T21:49:38.807Z,11.40
2022-12-11T21:54:44.445Z,11.20
2022-12-11T21:59:50.137Z,11.70
2022-12-11T22:04:55.865Z,12.30
2022-12-11T22:10:01.808Z,12.70
2022-12-11T22:15:10.025Z,12.10
2022-12-11T22:20:15.991Z,10.80
2022-12-11T22:25:21.904Z,12.40
2022-12-11T22:30:27.773Z,13.70
2022-12-11T22:35:33.572Z,12.40
2022-12-11T22:40:42.505Z,12.60
2022-12-11T22:45:48.165Z,14.90
2022-12-11T22:50:56.031Z,16.00
2022-12-11T22:56:05.952Z,14.40
2022-12-11T23:01:15.363Z,14.60
2022-12-11T23:06:24.972Z,16.70
2022-12-11T23:11:34.910Z,16.70
2022-12-11T23:16:41.079Z,15.00
2022-12-11T23:21:46.891Z,14.90
2022-12-11T23:26:52.558Z,15.60
2022-12-11T23:31:59.399Z,16.10
2022-12-11T23:37:05.553Z,15.00
2022-12-11T23:42:11.261Z,14.10
2022-12-11T23:47:16.972Z,15.70
2022-12-11T23:52:23.107Z,16.40
2022-12-11T23:57:30.287Z,17.60
